Time;durP1;ratioP1;P1;durP2;ratioP2;P2;SDS_P1;SDS_P2;PMS_P1;PMS_P2;Temp;Humidity;BMP_temperature;BMP_pressure;BME280_temperature;BME280_humidity;BME280_pressure;Samples;Min_cycle;Max_cycle;Signal;HPM_P1;HPM_P2
2022/04/10 00:01:51;;;;;;;;;;;10.30;75.70;;;;;;5090678;28;19912;-79
2022/04/10 00:04:18;;;;;;;;;;;10.20;76.10;;;;;;5089784;28;20006;-79
2022/04/10 00:06:43;;;;;;;;;;;10.20;76.20;;;;;;5089048;28;19908;-80
2022/04/10 00:09:10;;;;;;;;;;;10.20;76.40;;;;;;5092232;28;20276;-79
2022/04/10 00:11:35;;;;;;;;;;;10.20;75.80;;;;;;5088738;28;19907;-79
2022/04/10 00:14:01;;;;;;;;;;;10.20;76.30;;;;;;5089310;28;20299;-79
2022/04/10 00:16:26;;;;;;;;;;;10.20;76.20;;;;;;5088787;28;19912;-79
2022/04/10 00:18:52;;;;;;;;;;;10.10;76.60;;;;;;5089738;28;19954;-79
2022/04/10 00:21:18;;;;;;;;;;;10.10;76.80;;;;;;5092777;28;19939;-79
2022/04/10 00:23:43;;;;;;;;;;;10.10;76.60;;;;;;5089085;28;19998;-78
2022/04/10 00:26:11;;;;;;;;;;;10.10;77.30;;;;;;5088920;28;20356;-79
2022/04/10 00:28:37;;;;;;;;;;;10.10;77.10;;;;;;5090095;28;19995;-78
2022/04/10 00:31:03;;;;;;;;;;;10.00;76.90;;;;;;5088785;28;19959;-78
2022/04/10 00:33:28;;;;;;;;;;;10.10;77.20;;;;;;5091698;28;20276;-78
2022/04/10 00:35:54;;;;;;;;;;;10.10;76.70;;;;;;5090253;28;19943;-78
2022/04/10 00:38:20;;;;;;;;;;;10.00;77.40;;;;;;5089191;28;20331;-78
2022/04/10 00:40:46;;;;;;;;;;;9.90;77.60;;;;;;5088631;28;19914;-78
2022/04/10 00:43:11;;;;;;;;;;;9.90;77.90;;;;;;5089314;28;20292;-78
2022/04/10 00:45:37;;;;;;;;;;;9.90;78.40;;;;;;5091316;28;20425;-78
2022/04/10 00:48:02;;;;;;;;;;;10.00;77.30;;;;;;5090013;28;20002;-78
2022/04/10 00:50:28;;;;;;;;;;;9.90;77.90;;;;;;5088970;28;19908;-78
2022/04/10 00:52:54;;;;;;;;;;;10.00;77.20;;;;;;5088647;28;20312;-78
2022/04/10 00:55:20;;;;;;;;;;;10.00;77.00;;;;;;5088586;28;19908;-75
2022/04/10 00:57:46;;;;;;;;;;;10.00;77.40;;;;;;5090928;28;20395;-78
2022/04/10 01:00:12;;;;;;;;;;;9.90;77.90;;;;;;5091103;28;19958;-78
2022/04/10 01:02:40;;;;;;;;;;;9.90;77.50;;;;;;5088684;28;19948;-78
2022/04/10 01:05:06;;;;;;;;;;;9.90;78.50;;;;;;5089113;28;19908;-78
2022/04/10 01:07:33;;;;;;;;;;;9.90;78.80;;;;;;5090117;28;19919;-79
2022/04/10 01:09:58;;;;;;;;;;;9.90;79.10;;;;;;5088538;28;19915;-78
2022/04/10 01:12:24;;;;;;;;;;;9.70;79.30;;;;;;5092591;28;20272;-79
2022/04/10 01:14:51;;;;;;;;;;;9.40;79.30;;;;;;5088910;28;20001;-78
2022/04/10 01:17:17;;;;;;;;;;;9.00;81.50;;;;;;5088435;28;19912;-78
2022/04/10 01:19:42;;;;;;;;;;;8.80;82.90;;;;;;5088774;28;19991;-78
2022/04/10 01:22:08;;;;;;;;;;;8.90;83.70;;;;;;5088822;28;19924;-78
2022/04/10 01:24:37;;;;;;;;;;;8.80;83.20;;;;;;5090902;28;19911;-78
2022/04/10 01:27:03;;;;;;;;;;;8.70;83.30;;;;;;5089818;28;19905;-78
2022/04/10 01:29:29;;;;;;;;;;;8.90;83.50;;;;;;5088490;28;19915;-78
2022/04/10 01:31:55;;;;;;;;;;;8.90;83.60;;;;;;5088490;28;19915;-79
2022/04/10 01:34:22;;;;;;;;;;;9.00;84.50;;;;;;5089162;28;19908;-78
2022/04/10 01:36:48;;;;;;;;;;;9.00;84.10;;;;;;5089634;28;20377;-78
2022/04/10 01:39:16;;;;;;;;;;;8.80;83.60;;;;;;5090621;28;19939;-78
2022/04/10 01:41:42;;;;;;;;;;;8.80;83.70;;;;;;5088235;28;20351;-78
2022/04/10 01:44:09;;;;;;;;;;;8.80;84.00;;;;;;5091377;28;20070;-78
2022/04/10 01:46:35;;;;;;;;;;;8.80;83.50;;;;;;5092828;28;19908;-78
2022/04/10 01:49:01;;;;;;;;;;;8.80;83.70;;;;;;5092617;28;19961;-78
2022/04/10 01:51:27;;;;;;;;;;;8.80;84.00;;;;;;5095725;28;19908;-78
2022/04/10 01:53:53;;;;;;;;;;;8.90;83.80;;;;;;5092122;28;20007;-79
2022/04/10 01:56:19;;;;;;;;;;;8.90;84.80;;;;;;5092274;28;19908;-79
2022/04/10 01:58:45;;;;;;;;;;;8.80;83.90;;;;;;5092404;28;19919;-78
2022/04/10 02:01:12;;;;;;;;;;;8.80;84.20;;;;;;5092741;28;20391;-78
2022/04/10 02:03:38;;;;;;;;;;;8.90;84.50;;;;;;5094537;28;19927;-78
2022/04/10 02:06:04;;;;;;;;;;;8.80;84.30;;;;;;5093143;28;19904;-78
2022/04/10 02:08:30;;;;;;;;;;;8.80;84.20;;;;;;5091643;28;19908;-78
2022/04/10 02:10:56;;;;;;;;;;;8.90;84.30;;;;;;5091998;28;19908;-78
2022/04/10 02:13:22;;;;;;;;;;;8.80;84.10;;;;;;5091914;28;19908;-79
2022/04/10 02:15:48;;;;;;;;;;;8.80;85.00;;;;;;5092981;28;19922;-78
2022/04/10 02:18:14;;;;;;;;;;;8.80;84.50;;;;;;5094619;28;19910;-78
2022/04/10 02:20:40;;;;;;;;;;;9.00;86.00;;;;;;5091684;28;19954;-78
2022/04/10 02:23:06;;;;;;;;;;;8.90;84.50;;;;;;5091483;28;19916;-78
2022/04/10 02:25:31;;;;;;;;;;;8.90;84.70;;;;;;5093057;28;19915;-78
2022/04/10 02:27:57;;;;;;;;;;;8.90;85.10;;;;;;5092268;28;19915;-78
2022/04/10 02:30:22;;;;;;;;;;;8.80;85.10;;;;;;5095286;28;19904;-78
2022/04/10 02:32:48;;;;;;;;;;;8.80;86.30;;;;;;5091527;28;20288;-78
2022/04/10 02:35:14;;;;;;;;;;;8.80;85.80;;;;;;5091518;28;19961;-78
2022/04/10 02:37:40;;;;;;;;;;;8.80;87.00;;;;;;5091081;28;20269;-78
2022/04/10 02:40:06;;;;;;;;;;;8.90;86.30;;;;;;5091938;28;19912;-78
2022/04/10 02:42:34;;;;;;;;;;;8.80;86.30;;;;;;5093708;28;19965;-79
2022/04/10 02:45:00;;;;;;;;;;;8.80;86.80;;;;;;5092368;28;19904;-78
2022/04/10 02:47:25;;;;;;;;;;;8.70;87.10;;;;;;5091241;28;20345;-78
2022/04/10 02:49:51;;;;;;;;;;;8.80;86.20;;;;;;5091156;28;19908;-79
2022/04/10 02:52:17;;;;;;;;;;;8.70;87.10;;;;;;5090892;28;19968;-78
2022/04/10 02:54:42;;;;;;;;;;;8.60;87.90;;;;;;5092532;28;20037;-78
2022/04/10 02:57:08;;;;;;;;;;;8.50;88.90;;;;;;5092782;28;19904;-78
2022/04/10 02:59:35;;;;;;;;;;;8.40;90.20;;;;;;5090841;28;19989;-78
2022/04/10 03:02:00;;;;;;;;;;;8.40;90.80;;;;;;5090927;28;19920;-78
2022/04/10 03:04:26;;;;;;;;;;;8.30;91.30;;;;;;5092921;28;19912;-78
2022/04/10 03:06:51;;;;;;;;;;;8.10;90.90;;;;;;5091279;28;20631;-78
2022/04/10 03:09:17;;;;;;;;;;;8.00;90.70;;;;;;5093918;28;19904;-77
2022/04/10 03:11:43;;;;;;;;;;;8.00;90.70;;;;;;5090862;28;19908;-78
2022/04/10 03:14:08;;;;;;;;;;;8.10;90.40;;;;;;5090566;28;19912;-78
2022/04/10 03:16:34;;;;;;;;;;;8.10;90.10;;;;;;5090768;28;19951;-77
2022/04/10 03:19:00;;;;;;;;;;;8.10;90.00;;;;;;5090951;28;19916;-78
2022/04/10 03:21:26;;;;;;;;;;;8.20;89.50;;;;;;5093799;28;20404;-78
2022/04/10 03:23:52;;;;;;;;;;;8.20;89.30;;;;;;5092262;28;20365;-78
2022/04/10 03:26:17;;;;;;;;;;;8.20;89.70;;;;;;5090446;28;19950;-78
2022/04/10 03:28:43;;;;;;;;;;;8.20;89.90;;;;;;5090542;28;19908;-78
2022/04/10 03:31:08;;;;;;;;;;;8.10;89.40;;;;;;5090549;28;20307;-79
2022/04/10 03:33:34;;;;;;;;;;;8.20;90.10;;;;;;5092979;28;19908;-78
2022/04/10 03:35:59;;;;;;;;;;;8.20;89.80;;;;;;5091329;28;19904;-78
2022/04/10 03:38:25;;;;;;;;;;;8.20;89.20;;;;;;5090317;28;19915;-78
2022/04/10 03:40:51;;;;;;;;;;;8.30;89.30;;;;;;5090468;28;19916;-78
2022/04/10 03:43:16;;;;;;;;;;;8.20;88.70;;;;;;5073327;28;19924;-78
2022/04/10 03:45:42;;;;;;;;;;;8.10;88.90;;;;;;5092253;28;19915;-78
2022/04/10 03:48:08;;;;;;;;;;;8.20;88.40;;;;;;5092063;28;19911;-78
2022/04/10 03:50:34;;;;;;;;;;;8.20;89.20;;;;;;5089397;28;20023;-79
2022/04/10 03:53:00;;;;;;;;;;;8.10;88.60;;;;;;5090316;28;20011;-77
2022/04/10 03:55:26;;;;;;;;;;;8.00;89.60;;;;;;5090066;28;19907;-78
2022/04/10 03:57:51;;;;;;;;;;;8.20;88.70;;;;;;5090585;28;20337;-78
2022/04/10 04:00:17;;;;;;;;;;;8.20;88.60;;;;;;5092791;28;19947;-78
2022/04/10 04:02:42;;;;;;;;;;;8.20;88.30;;;;;;5090039;28;20283;-78
2022/04/10 04:05:09;;;;;;;;;;;8.30;88.00;;;;;;5089143;28;19923;-79
2022/04/10 04:07:35;;;;;;;;;;;8.40;87.50;;;;;;5089987;28;19908;-78
2022/04/10 04:10:01;;;;;;;;;;;8.20;88.10;;;;;;5089917;28;19965;-79
2022/04/10 04:12:27;;;;;;;;;;;8.20;88.50;;;;;;5093016;28;19958;-78
2022/04/10 04:14:52;;;;;;;;;;;8.20;88.10;;;;;;5090360;28;19916;-76
2022/04/10 04:17:18;;;;;;;;;;;8.20;88.10;;;;;;5088393;22;19971;-67
2022/04/10 04:19:46;;;;;;;;;;;8.30;87.60;;;;;;5063233;28;19923;-67
2022/04/10 04:22:11;;;;;;;;;;;8.30;87.80;;;;;;5072848;28;19955;-67
2022/04/10 04:24:37;;;;;;;;;;;8.30;87.20;;;;;;5056555;28;19916;-67
2022/04/10 04:27:03;;;;;;;;;;;8.30;87.50;;;;;;5073587;28;19912;-67
2022/04/10 04:29:28;;;;;;;;;;;8.40;86.90;;;;;;5071269;28;19908;-67
2022/04/10 04:31:54;;;;;;;;;;;8.50;86.50;;;;;;5072635;28;19908;-67
2022/04/10 04:34:21;;;;;;;;;;;8.60;85.90;;;;;;5072681;28;20582;-67
2022/04/10 04:36:46;;;;;;;;;;;8.50;85.90;;;;;;5072818;28;20402;-67
2022/04/10 04:39:12;;;;;;;;;;;8.60;86.30;;;;;;5073323;28;19951;-67
2022/04/10 04:41:37;;;;;;;;;;;8.50;86.80;;;;;;5072372;28;19908;-67
2022/04/10 04:44:03;;;;;;;;;;;8.40;87.70;;;;;;5072327;28;20354;-67
2022/04/10 04:46:29;;;;;;;;;;;8.40;88.60;;;;;;5070983;28;19919;-67
2022/04/10 04:48:54;;;;;;;;;;;8.30;89.10;;;;;;5054710;28;19916;-67
2022/04/10 04:51:20;;;;;;;;;;;8.20;90.30;;;;;;5073390;28;19909;-68
2022/04/10 04:53:46;;;;;;;;;;;8.30;90.30;;;;;;5072172;28;19908;-67
2022/04/10 04:56:11;;;;;;;;;;;8.20;90.60;;;;;;5072417;28;20022;-67
2022/04/10 04:58:37;;;;;;;;;;;8.10;90.30;;;;;;5072844;28;19905;-67
2022/04/10 05:01:02;;;;;;;;;;;7.90;90.60;;;;;;5072012;28;19973;-67
2022/04/10 05:03:28;;;;;;;;;;;7.90;90.40;;;;;;5054563;28;19939;-65
2022/04/10 05:05:54;;;;;;;;;;;7.90;90.40;;;;;;5060251;28;19912;-67
2022/04/10 05:08:20;;;;;;;;;;;7.90;90.30;;;;;;5066785;28;20005;-67
2022/04/10 05:10:46;;;;;;;;;;;7.80;90.60;;;;;;5070707;28;20022;-69
2022/04/10 05:13:12;;;;;;;;;;;8.00;90.70;;;;;;5071810;28;19958;-67
2022/04/10 05:15:37;;;;;;;;;;;7.90;90.50;;;;;;5072568;28;20339;-67
2022/04/10 05:18:03;;;;;;;;;;;8.00;90.60;;;;;;5071353;28;20398;-67
2022/04/10 05:20:29;;;;;;;;;;;8.10;90.10;;;;;;5072479;28;19946;-67
2022/04/10 05:22:54;;;;;;;;;;;8.00;89.80;;;;;;5072067;28;19928;-69
2022/04/10 05:25:20;;;;;;;;;;;8.10;89.30;;;;;;5071841;28;19954;-66
2022/04/10 05:27:46;;;;;;;;;;;8.20;89.10;;;;;;5071718;28;19916;-67
2022/04/10 05:30:12;;;;;;;;;;;8.20;88.70;;;;;;5071218;28;19915;-67
2022/04/10 05:32:42;;;;;;;;;;;8.20;89.50;;;;;;5071366;28;19905;-67
2022/04/10 05:35:08;;;;;;;;;;;8.20;89.10;;;;;;5072157;28;19956;-67
2022/04/10 05:37:33;;;;;;;;;;;8.30;89.30;;;;;;5069532;28;19995;-67
2022/04/10 05:39:59;;;;;;;;;;;8.40;88.00;;;;;;5056283;28;20008;-67
2022/04/10 05:42:25;;;;;;;;;;;8.50;87.80;;;;;;5070233;28;19924;-67
2022/04/10 05:44:50;;;;;;;;;;;8.60;87.40;;;;;;5071035;28;19984;-67
2022/04/10 05:47:16;;;;;;;;;;;8.50;87.30;;;;;;5063705;28;19908;-67
2022/04/10 05:49:42;;;;;;;;;;;8.50;88.50;;;;;;5062424;28;19908;-67
2022/04/10 05:52:08;;;;;;;;;;;8.30;90.20;;;;;;5071535;28;20268;-67
2022/04/10 05:54:33;;;;;;;;;;;8.10;90.30;;;;;;5072450;28;19971;-67
2022/04/10 05:56:59;;;;;;;;;;;8.20;90.40;;;;;;5071567;28;19905;-66
2022/04/10 05:59:24;;;;;;;;;;;8.10;90.50;;;;;;5072051;28;19930;-66
2022/04/10 06:01:50;;;;;;;;;;;8.00;90.20;;;;;;5069797;28;19916;-67
2022/04/10 06:04:17;;;;;;;;;;;8.00;90.20;;;;;;5072185;28;20323;-67
2022/04/10 06:06:42;;;;;;;;;;;8.00;90.20;;;;;;5071749;28;19905;-67
2022/04/10 06:09:08;;;;;;;;;;;8.00;90.20;;;;;;5072681;28;19950;-67
2022/04/10 06:11:34;;;;;;;;;;;8.10;90.60;;;;;;5071968;28;19919;-67
2022/04/10 06:14:00;;;;;;;;;;;8.20;90.60;;;;;;5070353;28;20562;-67
2022/04/10 06:16:26;;;;;;;;;;;8.20;90.00;;;;;;5070703;28;19916;-67
2022/04/10 06:18:51;;;;;;;;;;;8.50;89.50;;;;;;5071326;28;19913;-67
2022/04/10 06:21:17;;;;;;;;;;;8.50;89.30;;;;;;5057212;28;19928;-67
2022/04/10 06:23:42;;;;;;;;;;;8.60;89.30;;;;;;5070618;28;19970;-67
2022/04/10 06:26:08;;;;;;;;;;;8.70;89.40;;;;;;5064961;28;19909;-67
2022/04/10 06:28:34;;;;;;;;;;;8.90;89.00;;;;;;5061481;28;20305;-67
2022/04/10 06:31:00;;;;;;;;;;;9.00;88.50;;;;;;5073922;28;19913;-67
2022/04/10 06:33:26;;;;;;;;;;;9.00;87.60;;;;;;5074559;28;20007;-67
2022/04/10 06:35:54;;;;;;;;;;;9.20;87.50;;;;;;5075577;28;19993;-67
2022/04/10 06:38:19;;;;;;;;;;;9.20;87.30;;;;;;5087960;28;19913;-67
2022/04/10 06:40:47;;;;;;;;;;;9.30;89.10;;;;;;5072880;28;19930;-67
2022/04/10 06:43:12;;;;;;;;;;;9.40;88.80;;;;;;5061805;28;19920;-67
2022/04/10 06:45:38;;;;;;;;;;;9.40;89.50;;;;;;5073863;28;19931;-67
2022/04/10 06:48:06;;;;;;;;;;;9.50;87.50;;;;;;5075411;28;20289;-67
2022/04/10 06:50:31;;;;;;;;;;;9.70;86.40;;;;;;5075059;28;19909;-67
2022/04/10 06:52:57;;;;;;;;;;;9.90;84.80;;;;;;5075048;28;19998;-67
2022/04/10 06:55:23;;;;;;;;;;;10.00;84.90;;;;;;5087963;28;19954;-67
2022/04/10 06:57:48;;;;;;;;;;;10.10;85.10;;;;;;5058960;28;20029;-66
2022/04/10 07:00:15;;;;;;;;;;;10.30;84.90;;;;;;5060626;28;19912;-67
2022/04/10 07:02:41;;;;;;;;;;;10.30;84.20;;;;;;5072818;28;19981;-66
2022/04/10 07:05:07;;;;;;;;;;;10.30;83.50;;;;;;5074949;28;20336;-66
2022/04/10 07:07:32;;;;;;;;;;;10.40;82.00;;;;;;5074724;28;19912;-67
2022/04/10 07:10:00;;;;;;;;;;;10.60;81.10;;;;;;5074793;28;19915;-67
2022/04/10 07:12:26;;;;;;;;;;;10.80;80.40;;;;;;5075355;28;19909;-68
2022/04/10 07:14:52;;;;;;;;;;;10.90;78.60;;;;;;5057795;28;19909;-67
2022/04/10 07:17:17;;;;;;;;;;;11.00;77.60;;;;;;5057578;28;20360;-67
2022/04/10 07:19:45;;;;;;;;;;;11.00;77.50;;;;;;5057981;28;20003;-67
2022/04/10 07:24:54;;;;;;;;;;;11.20;75.60;;;;;;5057929;28;19931;-67
2022/04/10 07:27:20;;;;;;;;;;;11.20;74.50;;;;;;5074466;28;20364;-67
2022/04/10 07:29:46;;;;;;;;;;;11.30;73.70;;;;;;5074671;28;19912;-67
2022/04/10 07:32:11;;;;;;;;;;;11.40;74.00;;;;;;5074400;28;19998;-67
2022/04/10 07:34:37;;;;;;;;;;;11.50;74.40;;;;;;5074271;28;19912;-67
2022/04/10 07:37:02;;;;;;;;;;;11.50;73.40;;;;;;5074409;28;20445;-69
2022/04/10 07:39:28;;;;;;;;;;;11.60;72.90;;;;;;5058625;28;19948;-69
2022/04/10 07:41:54;;;;;;;;;;;11.60;72.20;;;;;;5073760;28;20362;-68
2022/04/10 07:44:19;;;;;;;;;;;11.60;72.10;;;;;;5074205;28;19908;-67
2022/04/10 07:49:29;;;;;;;;;;;11.90;72.50;;;;;;5074120;28;19982;-68
2022/04/10 07:51:54;;;;;;;;;;;11.90;71.00;;;;;;5058103;28;20364;-69
2022/04/10 07:54:20;;;;;;;;;;;12.00;70.90;;;;;;5074456;28;19908;-71
2022/04/10 07:56:46;;;;;;;;;;;12.10;70.80;;;;;;5073658;28;19908;-70
2022/04/10 07:59:12;;;;;;;;;;;12.20;70.20;;;;;;5073964;28;20288;-68
2022/04/10 08:01:38;;;;;;;;;;;12.20;70.00;;;;;;5074170;28;19908;-67
2022/04/10 08:04:03;;;;;;;;;;;12.20;70.20;;;;;;5073233;28;19920;-67
2022/04/10 08:06:29;;;;;;;;;;;12.30;70.30;;;;;;5072847;28;19908;-67
2022/04/10 08:08:55;;;;;;;;;;;12.20;69.20;;;;;;5061822;28;19913;-68
2022/04/10 08:11:20;;;;;;;;;;;12.30;70.10;;;;;;5068889;28;19986;-67
2022/04/10 08:13:46;;;;;;;;;;;12.40;70.30;;;;;;5073203;28;19915;-67
2022/04/10 08:16:14;;;;;;;;;;;12.50;69.50;;;;;;5073180;28;19916;-67
2022/04/10 08:18:39;;;;;;;;;;;12.60;68.80;;;;;;5057405;28;19905;-67
2022/04/10 08:21:06;;;;;;;;;;;12.60;69.20;;;;;;5073973;28;19904;-67
2022/04/10 08:23:31;;;;;;;;;;;12.70;68.40;;;;;;5073116;28;19920;-67
2022/04/10 08:25:57;;;;;;;;;;;12.70;68.70;;;;;;5073042;28;19994;-67
2022/04/10 08:28:23;;;;;;;;;;;12.80;68.60;;;;;;5073243;28;20428;-67
2022/04/10 08:30:48;;;;;;;;;;;12.80;67.60;;;;;;5073245;28;19908;-68
2022/04/10 08:33:14;;;;;;;;;;;12.90;68.80;;;;;;5073892;28;19904;-67
2022/04/10 08:35:40;;;;;;;;;;;13.00;67.10;;;;;;5073069;28;20289;-67
2022/04/10 08:38:05;;;;;;;;;;;12.90;66.20;;;;;;5072956;28;19909;-67
2022/04/10 08:40:31;;;;;;;;;;;13.00;66.80;;;;;;5072838;28;19958;-67
2022/04/10 08:42:58;;;;;;;;;;;13.00;65.70;;;;;;5072827;28;19916;-68
2022/04/10 08:45:25;;;;;;;;;;;13.00;66.00;;;;;;5069589;28;20459;-67
2022/04/10 08:47:51;;;;;;;;;;;13.20;66.80;;;;;;5072920;28;19912;-67
2022/04/10 08:50:17;;;;;;;;;;;13.30;65.40;;;;;;5072702;28;19952;-67
2022/04/10 08:52:44;;;;;;;;;;;13.40;65.90;;;;;;5071983;28;19950;-67
2022/04/10 08:55:10;;;;;;;;;;;13.50;65.70;;;;;;5072910;28;20414;-67
2022/04/10 08:57:36;;;;;;;;;;;13.60;65.10;;;;;;5055074;28;19909;-67
2022/04/10 09:00:02;;;;;;;;;;;13.60;66.30;;;;;;5073374;28;20481;-68
2022/04/10 09:02:27;;;;;;;;;;;13.80;66.00;;;;;;5071299;28;20638;-67
2022/04/10 09:04:53;;;;;;;;;;;13.90;67.00;;;;;;5071206;28;19908;-67
2022/04/10 09:07:20;;;;;;;;;;;14.00;65.60;;;;;;5071893;28;19991;-67
2022/04/10 09:09:54;;;;;;;;;;;14.10;65.40;;;;;;5072421;28;19946;-68
2022/04/10 09:12:20;;;;;;;;;;;14.30;64.40;;;;;;5072256;28;20409;-68
2022/04/10 09:14:46;;;;;;;;;;;14.40;64.00;;;;;;5071507;28;20003;-68
2022/04/10 09:17:16;;;;;;;;;;;14.40;64.30;;;;;;5070022;28;19917;-67
2022/04/10 09:19:43;;;;;;;;;;;14.50;61.80;;;;;;5072556;28;20364;-68
2022/04/10 09:22:20;;;;;;;;;;;14.60;61.80;;;;;;5072420;28;19908;-68
2022/04/10 09:25:04;;;;;;;;;;;14.80;59.80;;;;;;5072112;28;19911;-68
2022/04/10 09:27:31;;;;;;;;;;;14.90;60.90;;;;;;5069375;28;19913;-67
2022/04/10 09:29:57;;;;;;;;;;;14.90;59.40;;;;;;5072993;28;19912;-68
2022/04/10 09:32:23;;;;;;;;;;;15.00;61.10;;;;;;5070141;28;19909;-67
2022/04/10 09:34:55;;;;;;;;;;;15.00;60.40;;;;;;5068394;28;19915;-67
2022/04/10 09:37:20;;;;;;;;;;;15.10;59.90;;;;;;5093650;22;19933;-76
2022/04/10 09:39:46;;;;;;;;;;;15.30;59.60;;;;;;5026700;28;19920;-77
2022/04/10 09:42:14;;;;;;;;;;;15.20;60.60;;;;;;5031306;28;19916;-76
2022/04/10 09:44:39;;;;;;;;;;;15.20;59.90;;;;;;5021924;28;19916;-76
2022/04/10 09:47:06;;;;;;;;;;;15.20;59.90;;;;;;5029766;28;19909;-76
2022/04/10 09:49:33;;;;;;;;;;;15.30;61.00;;;;;;5027591;28;20008;-76
2022/04/10 09:52:12;;;;;;;;;;;15.50;60.90;;;;;;5027264;28;19909;-75
2022/04/10 09:54:38;;;;;;;;;;;15.40;60.30;;;;;;5020988;28;20360;-76
2022/04/10 09:57:04;;;;;;;;;;;15.40;60.20;;;;;;5028724;28;20220;-76
2022/04/10 09:59:36;;;;;;;;;;;15.50;60.10;;;;;;5027826;28;19913;-76
2022/04/10 10:02:03;;;;;;;;;;;15.70;58.50;;;;;;5027382;28;19916;-76
2022/04/10 10:04:28;;;;;;;;;;;15.70;59.10;;;;;;5029256;28;19909;-76
2022/04/10 10:06:54;;;;;;;;;;;15.70;59.40;;;;;;5031959;28;20638;-76
2022/04/10 10:09:20;;;;;;;;;;;15.80;58.90;;;;;;5013953;28;19928;-76
2022/04/10 10:11:47;;;;;;;;;;;15.90;55.30;;;;;;5009420;28;20028;-76
2022/04/10 10:14:13;;;;;;;;;;;16.00;57.80;;;;;;5025447;28;19913;-76
2022/04/10 10:16:41;;;;;;;;;;;16.10;56.70;;;;;;5031831;28;19915;-75
2022/04/10 10:19:07;;;;;;;;;;;16.10;55.50;;;;;;5030889;28;19964;-77
2022/04/10 10:21:33;;;;;;;;;;;16.30;55.10;;;;;;5033826;28;19908;-77
2022/04/10 10:23:58;;;;;;;;;;;16.30;57.60;;;;;;5034245;28;19917;-75
2022/04/10 10:26:44;;;;;;;;;;;16.30;56.90;;;;;;5031385;28;20411;-73
2022/04/10 10:29:22;;;;;;;;;;;16.20;55.90;;;;;;5029818;28;19909;-74
2022/04/10 10:31:54;;;;;;;;;;;16.10;55.10;;;;;;5031135;28;19919;-74
2022/04/10 10:34:21;;;;;;;;;;;16.10;56.90;;;;;;5031137;28;19909;-75
2022/04/10 10:36:47;;;;;;;;;;;16.20;56.30;;;;;;5032581;28;19914;-74
2022/04/10 10:39:13;;;;;;;;;;;16.20;57.20;;;;;;5032867;28;20400;-73
2022/04/10 10:41:38;;;;;;;;;;;16.30;56.20;;;;;;5031036;28;19913;-73
2022/04/10 10:44:22;;;;;;;;;;;16.30;55.50;;;;;;5030944;28;19921;-73
2022/04/10 10:46:55;;;;;;;;;;;16.30;56.50;;;;;;5030737;28;19913;-72
2022/04/10 10:49:21;;;;;;;;;;;16.40;54.40;;;;;;5030890;28;19913;-73
2022/04/10 10:51:48;;;;;;;;;;;16.50;54.80;;;;;;5031598;28;20029;-74
2022/04/10 10:54:34;;;;;;;;;;;16.50;54.00;;;;;;5032337;28;20535;-73
2022/04/10 10:57:19;;;;;;;;;;;16.70;52.70;;;;;;5033143;28;19912;-72
2022/04/10 10:59:45;;;;;;;;;;;16.70;55.30;;;;;;5030085;28;19951;-72
2022/04/10 11:02:12;;;;;;;;;;;16.70;54.80;;;;;;5030198;28;19917;-72
2022/04/10 11:04:44;;;;;;;;;;;16.70;54.60;;;;;;5030178;28;20325;-72
2022/04/10 11:07:16;;;;;;;;;;;16.70;54.20;;;;;;5030764;28;20356;-77
2022/04/10 11:09:49;;;;;;;;;;;16.60;54.10;;;;;;5032749;28;19959;-71
2022/04/10 11:12:15;;;;;;;;;;;16.70;55.30;;;;;;5032538;28;19949;-73
2022/04/10 11:14:41;;;;;;;;;;;16.90;53.90;;;;;;5029381;28;19955;-73
2022/04/10 11:17:19;;;;;;;;;;;16.90;53.90;;;;;;5029909;28;19948;-74
2022/04/10 11:20:08;;;;;;;;;;;17.00;53.40;;;;;;5030056;28;20266;-73
2022/04/10 11:22:34;;;;;;;;;;;17.00;54.60;;;;;;5019531;28;20336;-73
2022/04/10 11:25:04;;;;;;;;;;;17.20;53.00;;;;;;5030425;28;19909;-73
2022/04/10 11:27:43;;;;;;;;;;;17.20;53.70;;;;;;5033456;28;19945;-73
2022/04/10 11:30:13;;;;;;;;;;;17.40;53.00;;;;;;5031896;28;19905;-72
2022/04/10 11:32:43;;;;;;;;;;;17.30;51.10;;;;;;5012445;28;19939;-71
2022/04/10 11:35:16;;;;;;;;;;;17.50;52.30;;;;;;5029890;28;19913;-71
2022/04/10 11:37:42;;;;;;;;;;;17.50;50.90;;;;;;5029858;28;19912;-73
2022/04/10 11:40:09;;;;;;;;;;;17.60;51.80;;;;;;5030337;28;20005;-72
2022/04/10 11:42:35;;;;;;;;;;;17.70;51.90;;;;;;5030881;28;19959;-73
2022/04/10 11:45:01;;;;;;;;;;;17.70;51.60;;;;;;5030156;28;19909;-72
2022/04/10 11:47:28;;;;;;;;;;;17.90;51.10;;;;;;5022791;28;20073;-73
2022/04/10 11:49:54;;;;;;;;;;;17.90;50.50;;;;;;5024574;28;19920;-72
2022/04/10 11:52:20;;;;;;;;;;;18.10;52.20;;;;;;5021703;28;19917;-73
2022/04/10 11:54:49;;;;;;;;;;;18.30;50.90;;;;;;5028495;28;19916;-72
2022/04/10 11:57:15;;;;;;;;;;;18.10;51.80;;;;;;5028649;28;19913;-72
2022/04/10 11:59:43;;;;;;;;;;;18.20;49.40;;;;;;5025889;28;19913;-73
2022/04/10 12:02:09;;;;;;;;;;;18.20;50.40;;;;;;5024654;28;19920;-72
2022/04/10 12:04:36;;;;;;;;;;;18.30;49.60;;;;;;5023256;28;20027;-73
2022/04/10 12:07:21;;;;;;;;;;;18.40;51.00;;;;;;5025000;28;20389;-73
2022/04/10 12:09:47;;;;;;;;;;;18.40;47.20;;;;;;5025782;28;20278;-72
2022/04/10 12:12:13;;;;;;;;;;;18.40;49.60;;;;;;5026641;28;20373;-73
2022/04/10 12:14:39;;;;;;;;;;;18.40;50.10;;;;;;5024147;28;19913;-73
2022/04/10 12:17:17;;;;;;;;;;;18.50;47.10;;;;;;5022824;28;20358;-73
2022/04/10 12:19:43;;;;;;;;;;;18.40;48.20;;;;;;5025680;28;19920;-73
2022/04/10 12:22:12;;;;;;;;;;;18.40;49.80;;;;;;5007968;28;19909;-73
2022/04/10 12:24:38;;;;;;;;;;;18.60;49.20;;;;;;5019348;28;19909;-72
2022/04/10 12:27:07;;;;;;;;;;;18.60;50.80;;;;;;5022095;28;19960;-79
2022/04/10 12:29:36;;;;;;;;;;;18.70;49.00;;;;;;5022632;28;20426;-72
2022/04/10 12:32:03;;;;;;;;;;;18.80;49.70;;;;;;5025024;28;19908;-72
2022/04/10 12:34:38;;;;;;;;;;;18.90;48.20;;;;;;5025298;28;20315;-72
2022/04/10 12:37:09;;;;;;;;;;;18.80;49.70;;;;;;5010212;28;19913;-72
2022/04/10 12:39:35;;;;;;;;;;;18.70;49.50;;;;;;5026838;28;19928;-72
2022/04/10 12:42:07;;;;;;;;;;;18.70;50.40;;;;;;5027295;28;19909;-80
2022/04/10 12:44:37;;;;;;;;;;;18.70;51.00;;;;;;5026202;28;19909;-77
2022/04/10 12:47:03;;;;;;;;;;;18.90;47.30;;;;;;5009531;28;19913;-74
2022/04/10 12:49:29;;;;;;;;;;;18.90;47.50;;;;;;5024986;28;19909;-74
2022/04/10 12:51:55;;;;;;;;;;;18.90;48.20;;;;;;5025304;28;19947;-74
2022/04/10 12:54:37;;;;;;;;;;;18.80;48.60;;;;;;5027670;28;19916;-74
2022/04/10 12:57:04;;;;;;;;;;;18.90;51.90;;;;;;5027659;28;19916;-72
2022/04/10 12:59:50;;;;;;;;;;;18.90;49.00;;;;;;5024297;28;19936;-72
2022/04/10 13:02:23;;;;;;;;;;;18.90;47.70;;;;;;5026544;28;20430;-72
2022/04/10 13:05:13;;;;;;;;;;;18.70;46.00;;;;;;5027842;28;19956;-72
2022/04/10 13:07:53;;;;;;;;;;;18.90;45.20;;;;;;5017988;28;20032;-75
2022/04/10 13:10:18;;;;;;;;;;;18.50;45.30;;;;;;5027973;28;19909;-73
2022/04/10 13:12:44;;;;;;;;;;;18.10;45.20;;;;;;5030573;28;19913;-71
2022/04/10 13:15:12;;;;;;;;;;;18.30;48.90;;;;;;5029206;28;19951;-72
2022/04/10 13:17:38;;;;;;;;;;;18.30;45.10;;;;;;5028145;28;19905;-73
2022/04/10 13:20:08;;;;;;;;;;;18.10;45.90;;;;;;5028043;28;19909;-74
2022/04/10 13:22:37;;;;;;;;;;;18.30;46.60;;;;;;5006094;28;20625;-73
2022/04/10 13:25:04;;;;;;;;;;;18.40;46.70;;;;;;5026496;28;19924;-73
2022/04/10 13:27:29;;;;;;;;;;;18.60;50.30;;;;;;5021801;28;19909;-74
2022/04/10 13:29:55;;;;;;;;;;;19.00;47.20;;;;;;5025748;28;20423;-74
2022/04/10 13:32:21;;;;;;;;;;;19.10;48.20;;;;;;5024634;28;19909;-74
2022/04/10 13:34:46;;;;;;;;;;;19.20;49.00;;;;;;5023744;28;19958;-73
2022/04/10 13:37:13;;;;;;;;;;;19.10;46.40;;;;;;5025046;28;19913;-72
2022/04/10 13:39:38;;;;;;;;;;;19.20;47.70;;;;;;5028938;28;19925;-73
2022/04/10 13:42:04;;;;;;;;;;;19.20;43.50;;;;;;5011845;28;19920;-72
2022/04/10 13:44:30;;;;;;;;;;;19.20;45.20;;;;;;5028324;28;20322;-72
2022/04/10 13:46:56;;;;;;;;;;;19.40;45.90;;;;;;5013786;28;20296;-73
2022/04/10 13:49:21;;;;;;;;;;;19.40;44.40;;;;;;5027955;28;19905;-72
2022/04/10 13:51:47;;;;;;;;;;;19.60;44.50;;;;;;5028115;28;19920;-72
2022/04/10 13:54:13;;;;;;;;;;;19.60;46.20;;;;;;5030298;28;19913;-72
2022/04/10 13:56:38;;;;;;;;;;;19.60;42.50;;;;;;5028473;28;19909;-72
2022/04/10 13:59:04;;;;;;;;;;;19.50;42.90;;;;;;5028405;28;19913;-73
2022/04/10 14:01:30;;;;;;;;;;;19.90;46.00;;;;;;5027996;28;20397;-72
2022/04/10 14:03:55;;;;;;;;;;;20.10;41.30;;;;;;5028859;28;20074;-72
2022/04/10 14:06:22;;;;;;;;;;;20.10;45.10;;;;;;5032035;28;20362;-72
2022/04/10 14:08:47;;;;;;;;;;;20.20;42.10;;;;;;5028252;28;19905;-73
2022/04/10 14:11:13;;;;;;;;;;;20.40;43.40;;;;;;5027918;28;19920;-72
2022/04/10 14:13:38;;;;;;;;;;;20.40;45.10;;;;;;5026243;28;20436;-73
2022/04/10 14:16:04;;;;;;;;;;;20.60;43.60;;;;;;5027095;28;19912;-73
2022/04/10 14:18:30;;;;;;;;;;;20.70;43.90;;;;;;5027942;28;19983;-72
2022/04/10 14:20:56;;;;;;;;;;;20.80;41.90;;;;;;5029184;28;19913;-72
2022/04/10 14:23:21;;;;;;;;;;;20.80;39.30;;;;;;5013283;28;20011;-73
2022/04/10 14:25:47;;;;;;;;;;;20.90;39.80;;;;;;5028172;28;19992;-73
2022/04/10 14:28:13;;;;;;;;;;;21.40;41.80;;;;;;5029985;28;19920;-73